< < Back
Terminal Aerodrome Forecast


Current Version              Previous Versions:   1  2  3  4  5  6  7  8  9  

Terminal Aerodrome Forecast

112
FTUS42 KTAE 152300
TAFVLD
TAF
KVLD 152320Z 1600/1624 00000KT P6SM OVC250
     FM161100 00000KT 4SM BR BKN004
     FM161500 25004KT P6SM BKN250
     FM161900 20006KT P6SM TSRA SCT030CB BKN250=

Latest METAR

109
SAUS70 KWBC 160200 RRE
MTRVLD
METAR KVLD 160153Z 00000KT 10SM FEW090 24/23 A3012 RMK AO2 SLP207
T02440233


USA.gov is the U.S. government's official web portal to all federal, state and local government web resources and services.